Terminal Aerodrome Forecast
Issued by NWS Knoxville/Tri Cities, TN

Home | Current Version | Previous Version | Text Only | Print | Product List | Glossary On
Versions: 1 2 3 4 5 6 7 8 9 10 11 12 13 14 15 16 17 18 19 20 21 22 23 24
000
FTUS44 KMRX 250520
TAFCHA
TAF
KCHA 250520Z 2506/2606 15006KT P6SM SCT150
     FM251300 15007KT P6SM BKN035
     FM251900 17008KT P6SM VCTS BKN040CB
      TEMPO 2520/2523 3SM -TSRA BR OVC020CB
     FM260000 16004KT P6SM VCSH BKN050=

USA.gov is the U.S. government's official web portal to all federal, state and local government web resources and services.